createdAt,value
2022-12-23T00:01:37.083Z,101270.63
2022-12-23T00:04:07.002Z,101263.13
2022-12-23T00:06:36.574Z,101252.38
2022-12-23T00:09:05.186Z,101246.00
2022-12-23T00:11:33.619Z,101249.38
2022-12-23T00:14:21.909Z,101259.81
2022-12-23T00:16:51.483Z,101263.34
2022-12-23T00:19:21.319Z,101265.72
2022-12-23T00:21:49.800Z,101255.66
2022-12-23T00:24:19.066Z,101257.34
2022-12-23T00:26:47.424Z,101259.50
2022-12-23T00:29:15.934Z,101267.25
2022-12-23T00:31:44.317Z,101267.25
2022-12-23T00:34:13.194Z,101261.03
2022-12-23T00:36:43.092Z,101258.97
2022-12-23T00:39:30.960Z,101270.72
2022-12-23T00:42:17.413Z,101268.63
2022-12-23T00:44:46.064Z,101270.63
2022-12-23T00:47:35.191Z,101268.94
2022-12-23T00:50:02.435Z,101267.25
2022-12-23T00:52:32.129Z,101255.50
2022-12-23T00:55:00.418Z,101258.50
2022-12-23T00:57:28.680Z,101256.81
2022-12-23T00:59:57.024Z,101247.13
2022-12-23T01:02:42.801Z,101239.78
2022-12-23T01:05:29.715Z,101246.00
2022-12-23T01:08:00.361Z,101237.38
2022-12-23T01:10:28.708Z,101235.25
2022-12-23T01:12:56.966Z,101235.09
2022-12-23T01:15:25.388Z,101246.69
2022-12-23T01:17:53.741Z,101241.00
2022-12-23T01:20:22.256Z,101249.91
2022-12-23T01:22:50.529Z,101221.25
2022-12-23T01:25:20.235Z,101232.78
2022-12-23T01:27:48.510Z,101230.94
2022-12-23T01:30:16.984Z,101228.09
2022-12-23T01:32:45.187Z,101231.63
2022-12-23T01:35:14.484Z,101236.16
2022-12-23T01:37:42.758Z,101243.53
2022-12-23T01:40:11.777Z,101253.28
2022-12-23T01:42:47.565Z,101240.53
2022-12-23T01:45:19.496Z,101242.22
2022-12-23T01:47:53.758Z,101210.81
2022-12-23T01:50:27.012Z,101250.44
2022-12-23T01:53:06.973Z,101260.03
2022-12-23T01:55:40.015Z,101102.31
2022-12-23T01:58:13.803Z,101269.81
2022-12-23T02:01:01.201Z,101259.03
2022-12-23T02:03:45.238Z,101253.81
2022-12-23T02:06:37.801Z,101252.81
2022-12-23T02:09:18.816Z,101253.13
2022-12-23T02:12:22.593Z,101251.13
2022-12-23T02:15:25.375Z,101258.34
2022-12-23T02:18:06.635Z,101262.19
2022-12-23T02:21:00.806Z,101280.16
2022-12-23T02:24:17.205Z,101262.34
2022-12-23T02:27:20.220Z,101282.16
2022-12-23T02:30:25.365Z,101278.63
2022-12-23T02:33:17.880Z,101277.78
2022-12-23T02:35:54.601Z,101271.25
2022-12-23T02:38:31.578Z,101270.09
2022-12-23T02:41:09.809Z,101265.72
2022-12-23T02:43:46.524Z,101237.16
2022-12-23T02:46:23.635Z,101227.88
2022-12-23T02:48:58.225Z,101210.69
2022-12-23T02:51:32.667Z,101261.03
2022-12-23T02:54:04.636Z,101254.66
2022-12-23T02:56:36.441Z,101225.25
2022-12-23T02:59:09.944Z,101260.19
2022-12-23T03:01:41.201Z,101271.09
2022-12-23T03:04:10.098Z,101266.56
2022-12-23T03:06:41.787Z,101242.06
2022-12-23T03:09:11.295Z,101250.59
2022-12-23T03:11:51.130Z,101261.03
2022-12-23T03:14:35.712Z,101259.50
2022-12-23T03:17:19.022Z,101231.09
2022-12-23T03:19:54.287Z,101268.56
2022-12-23T03:22:27.058Z,101252.97
2022-12-23T03:25:03.340Z,101276.34
2022-12-23T03:27:38.413Z,101270.81
2022-12-23T03:30:09.410Z,101254.22
2022-12-23T03:32:45.093Z,101275.69
2022-12-23T03:35:17.109Z,101280.22
2022-12-23T03:37:50.202Z,101131.16
2022-12-23T03:40:23.935Z,101265.47
2022-12-23T03:42:56.322Z,101269.84
2022-12-23T03:45:38.599Z,101272.06
2022-12-23T03:48:16.673Z,101260.09
2022-12-23T03:50:46.568Z,101266.22
2022-12-23T03:53:19.920Z,101265.91
2022-12-23T03:55:52.191Z,101274.69
2022-12-23T03:58:30.377Z,101236.34
2022-12-23T04:01:06.045Z,101271.31
2022-12-23T04:03:42.897Z,101234.84
2022-12-23T04:06:16.593Z,101274.06
2022-12-23T04:08:47.499Z,101280.38
2022-12-23T04:11:16.408Z,101289.44
2022-12-23T04:13:44.900Z,101283.38
2022-12-23T04:16:13.482Z,101290.59
2022-12-23T04:18:43.364Z,101295.81
2022-12-23T04:21:11.728Z,101297.97
2022-12-23T04:23:40.409Z,101297.81
2022-12-23T04:26:08.659Z,101293.28
2022-12-23T04:28:36.937Z,101303.88
2022-12-23T04:31:05.493Z,101288.59
2022-12-23T04:33:33.918Z,101284.06
2022-12-23T04:36:03.579Z,101275.84
2022-12-23T04:38:31.896Z,101273.59
2022-12-23T04:41:00.203Z,101289.75
2022-12-23T04:43:28.621Z,101288.06
2022-12-23T04:45:56.908Z,101291.44
2022-12-23T04:48:25.327Z,101291.44
2022-12-23T04:50:53.595Z,101268.53
2022-12-23T04:53:23.334Z,101259.16
2022-12-23T04:55:52.239Z,101270.06
2022-12-23T04:58:22.223Z,101284.38
2022-12-23T05:00:50.602Z,101289.75
2022-12-23T05:03:19.086Z,101279.28
2022-12-23T05:05:47.458Z,101291.44
2022-12-23T05:08:15.703Z,101293.31
2022-12-23T05:10:46.055Z,101294.78
2022-12-23T05:13:14.426Z,101297.78
2022-12-23T05:15:45.240Z,101288.81
2022-12-23T05:18:13.949Z,101299.03
2022-12-23T05:20:42.299Z,101301.88
2022-12-23T05:23:11.129Z,101298.50
2022-12-23T05:25:40.966Z,101289.91
2022-12-23T05:28:10.811Z,101295.97
2022-12-23T05:30:40.080Z,101293.97
2022-12-23T05:33:08.484Z,101295.81
2022-12-23T05:35:36.693Z,101300.34
2022-12-23T05:38:05.006Z,101301.03
2022-12-23T05:40:33.246Z,101300.19
2022-12-23T05:43:02.255Z,101295.66
2022-12-23T05:45:36.008Z,101290.13
2022-12-23T05:48:04.767Z,101298.19
2022-12-23T05:50:34.188Z,101294.50
2022-12-23T05:53:04.299Z,101294.50
2022-12-23T05:55:32.770Z,101298.03
2022-12-23T05:58:01.101Z,101293.50
2022-12-23T06:00:29.520Z,101297.34
2022-12-23T06:03:00.349Z,101297.34
2022-12-23T06:05:29.012Z,101296.66
2022-12-23T06:07:57.256Z,101298.66
2022-12-23T06:10:26.317Z,101165.09
2022-12-23T06:12:54.626Z,101287.06
2022-12-23T06:15:23.059Z,101288.06
2022-12-23T06:17:51.758Z,101289.91
2022-12-23T06:20:21.403Z,101295.44
2022-12-23T06:22:49.690Z,101299.41
2022-12-23T06:25:18.059Z,101304.81
2022-12-23T06:27:46.318Z,101306.78
2022-12-23T06:30:15.249Z,101305.94
2022-12-23T06:32:43.613Z,101300.03
2022-12-23T06:35:11.980Z,101286.59
2022-12-23T06:37:42.614Z,101293.81
2022-12-23T06:40:12.150Z,101292.31
2022-12-23T06:42:41.416Z,101291.63
2022-12-23T06:45:11.035Z,101298.00
2022-12-23T06:47:39.345Z,101298.28
2022-12-23T06:50:09.277Z,101300.13
2022-12-23T06:52:37.506Z,101311.03
2022-12-23T06:55:07.935Z,101303.66
2022-12-23T06:57:36.294Z,101301.28
2022-12-23T07:00:05.787Z,101292.97
2022-12-23T07:02:34.540Z,101312.03
2022-12-23T07:05:02.962Z,101314.88
2022-12-23T07:07:32.325Z,101319.56
2022-12-23T07:10:00.606Z,101312.66
2022-12-23T07:12:30.352Z,101317.19
2022-12-23T07:14:58.630Z,101324.53
2022-12-23T07:17:26.869Z,101320.16
2022-12-23T07:19:55.127Z,101328.22
2022-12-23T07:22:23.581Z,101344.50
2022-12-23T07:24:52.022Z,101343.81
2022-12-23T07:27:20.313Z,101338.44
2022-12-23T07:29:49.972Z,101338.44
2022-12-23T07:32:19.228Z,101343.81
2022-12-23T07:34:47.438Z,101359.09
2022-12-23T07:37:15.692Z,101348.19
2022-12-23T07:39:43.918Z,101344.50
2022-12-23T07:45:02.749Z,101346.03
2022-12-23T07:47:30.973Z,101344.91
2022-12-23T07:49:59.270Z,101348.44
2022-12-23T07:52:27.538Z,101354.50
2022-12-23T07:54:55.798Z,101335.53
2022-12-23T07:57:24.514Z,101335.22
2022-12-23T07:59:52.789Z,101340.22
2022-12-23T08:02:25.524Z,101324.41
2022-12-23T08:04:53.983Z,101344.00
2022-12-23T08:07:22.190Z,101356.28
2022-12-23T08:09:50.542Z,101358.81
2022-12-23T08:12:18.841Z,101354.13
2022-12-23T08:14:48.524Z,101353.16
2022-12-23T08:17:16.916Z,101363.72
2022-12-23T08:19:46.818Z,101369.63
2022-12-23T08:22:15.249Z,101378.41
2022-12-23T08:24:43.573Z,101378.25
2022-12-23T08:27:12.102Z,101372.72
2022-12-23T08:29:40.781Z,101368.03
2022-12-23T08:32:09.192Z,101383.88
2022-12-23T08:34:39.648Z,101392.78
2022-12-23T08:37:09.398Z,101381.03
2022-12-23T08:39:37.772Z,101389.94
2022-12-23T08:42:06.289Z,101400.69
2022-12-23T08:44:34.620Z,101400.53
2022-12-23T08:47:02.987Z,101402.22
2022-12-23T08:49:31.460Z,101397.69
2022-12-23T08:51:59.857Z,101401.09
2022-12-23T08:54:29.648Z,101403.47
2022-12-23T08:56:58.985Z,101400.63
2022-12-23T08:59:28.734Z,101390.72
2022-12-23T09:01:59.818Z,101390.38
2022-12-23T09:04:28.293Z,101389.38
2022-12-23T09:06:56.773Z,101396.16
2022-12-23T09:09:25.133Z,101401.06
2022-12-23T09:11:54.775Z,101401.47
2022-12-23T09:14:23.078Z,101406.09
2022-12-23T09:16:52.654Z,101406.22
2022-12-23T09:19:21.030Z,101416.78
2022-12-23T09:21:49.371Z,101400.06
2022-12-23T09:24:17.599Z,101393.22
2022-12-23T09:26:45.892Z,101392.13
2022-12-23T09:29:15.559Z,101388.47
2022-12-23T09:31:43.899Z,101385.09
2022-12-23T09:34:12.935Z,101377.75
2022-12-23T09:36:41.367Z,101382.22
2022-12-23T09:39:11.600Z,101361.94
2022-12-23T09:41:56.058Z,101392.91
2022-12-23T09:44:50.159Z,101386.34
2022-12-23T09:47:22.138Z,101329.34
2022-12-23T09:49:53.925Z,101369.50
2022-12-23T09:52:26.708Z,101351.47
2022-12-23T09:54:56.673Z,101348.28
2022-12-23T09:57:35.564Z,101345.56
2022-12-23T10:00:11.842Z,101356.34
2022-12-23T10:03:06.053Z,101370.88
2022-12-23T10:05:43.923Z,101365.09
2022-12-23T10:08:20.830Z,101368.59
2022-12-23T10:10:52.547Z,101370.38
2022-12-23T10:13:26.902Z,101231.19
2022-12-23T10:15:59.751Z,101359.50
2022-12-23T10:18:43.013Z,101360.13
2022-12-23T10:21:16.896Z,101337.78
2022-12-23T10:23:49.973Z,101341.66
2022-12-23T10:26:27.149Z,101352.00
2022-12-23T10:29:02.078Z,101329.38
2022-12-23T10:31:43.229Z,101348.13
2022-12-23T10:34:20.974Z,101320.78
2022-12-23T10:36:59.808Z,101335.88
2022-12-23T10:39:37.776Z,101343.38
2022-12-23T10:42:16.846Z,101337.38
2022-12-23T10:45:00.807Z,101325.81
2022-12-23T10:47:45.676Z,101320.47
2022-12-23T10:50:32.708Z,101317.88
2022-12-23T10:53:04.381Z,101158.28
2022-12-23T10:55:38.346Z,101321.16
2022-12-23T10:58:10.099Z,101295.91
2022-12-23T11:00:42.226Z,101180.69
2022-12-23T11:03:19.966Z,101277.97
2022-12-23T11:05:51.624Z,101274.25
2022-12-23T11:08:22.736Z,101182.03
2022-12-23T11:10:51.570Z,101313.59
2022-12-23T11:13:38.027Z,101333.03
2022-12-23T11:16:19.513Z,101329.78
2022-12-23T11:18:58.235Z,101328.63
2022-12-23T11:21:27.104Z,101320.13
2022-12-23T11:24:18.475Z,101300.34
2022-12-23T11:26:49.412Z,101317.31
2022-12-23T11:29:23.926Z,101345.00
2022-12-23T11:31:53.209Z,101345.06
2022-12-23T11:34:25.457Z,101311.72
2022-12-23T11:37:01.587Z,101354.41
2022-12-23T11:39:35.921Z,101308.06
2022-12-23T11:42:09.082Z,101326.84
2022-12-23T11:44:41.922Z,101324.44
2022-12-23T11:47:26.423Z,101308.28
2022-12-23T11:49:57.550Z,101305.56
2022-12-23T11:52:27.099Z,101264.00
2022-12-23T11:54:57.260Z,101231.81
2022-12-23T11:57:33.853Z,101302.97
2022-12-23T12:00:05.363Z,101291.91
2022-12-23T12:02:39.361Z,101287.44
2022-12-23T12:05:22.669Z,101278.47
2022-12-23T12:07:53.068Z,101232.59
2022-12-23T12:10:23.887Z,101238.84
2022-12-23T12:12:56.470Z,101144.25
2022-12-23T12:15:34.971Z,101244.56
2022-12-23T12:18:07.530Z,101265.78
2022-12-23T12:20:40.786Z,101164.88
2022-12-23T12:23:17.378Z,101254.47
2022-12-23T12:25:50.760Z,101229.63
2022-12-23T12:31:25.918Z,101240.28
2022-12-23T12:34:01.680Z,101267.34
2022-12-23T12:36:39.115Z,101131.63
2022-12-23T12:39:16.603Z,101262.78
2022-12-23T12:41:52.198Z,101259.88
2022-12-23T12:44:31.456Z,101265.31
2022-12-23T12:47:28.188Z,101252.13
2022-12-23T12:50:00.908Z,101150.22
2022-12-23T12:52:38.005Z,101253.53
2022-12-23T12:55:13.884Z,101203.84
2022-12-23T12:57:42.438Z,101246.44
2022-12-23T13:00:16.002Z,101241.84
2022-12-23T13:03:01.881Z,101242.41
2022-12-23T13:05:54.856Z,101120.63
2022-12-23T13:08:43.790Z,101245.22
2022-12-23T13:11:26.523Z,101255.88
2022-12-23T13:14:06.949Z,101221.69
2022-12-23T13:16:46.211Z,101254.84
2022-12-23T13:19:22.684Z,101230.63
2022-12-23T13:21:56.598Z,101244.19
2022-12-23T13:24:33.183Z,101236.06
2022-12-23T13:27:09.033Z,101213.38
2022-12-23T13:29:54.523Z,101086.66
2022-12-23T13:32:39.365Z,101187.97
2022-12-23T13:35:26.544Z,101215.88
2022-12-23T13:38:01.406Z,101217.28
2022-12-23T13:40:39.685Z,101222.31
2022-12-23T13:43:14.753Z,101200.69
2022-12-23T13:45:45.428Z,101200.28
2022-12-23T13:48:33.054Z,101225.31
2022-12-23T13:51:09.071Z,101220.75
2022-12-23T13:53:50.856Z,101211.78
2022-12-23T13:56:28.223Z,101208.88
2022-12-23T13:58:57.363Z,101186.66
2022-12-23T14:01:43.797Z,101218.69
2022-12-23T14:04:37.017Z,101210.75
2022-12-23T14:07:19.559Z,101181.97
2022-12-23T14:09:52.460Z,101201.13
2022-12-23T14:12:28.099Z,101198.78
2022-12-23T14:15:19.692Z,101201.13
2022-12-23T14:18:02.535Z,101194.03
2022-12-23T14:20:43.189Z,101158.19
2022-12-23T14:23:26.168Z,101151.53
2022-12-23T14:26:11.040Z,101147.59
2022-12-23T14:28:55.215Z,101178.44
2022-12-23T14:31:32.860Z,101175.63
2022-12-23T14:34:07.519Z,101111.88
2022-12-23T14:36:36.052Z,101200.84
2022-12-23T14:39:33.270Z,101207.28
2022-12-23T14:42:07.525Z,101211.41
2022-12-23T14:44:50.507Z,101208.69
2022-12-23T14:47:34.727Z,101216.16
2022-12-23T14:50:38.200Z,101205.88
2022-12-23T14:53:21.857Z,101213.56
2022-12-23T14:55:52.098Z,101209.16
2022-12-23T14:58:49.219Z,101219.91
2022-12-23T15:01:22.059Z,101224.53
2022-12-23T15:04:00.768Z,101195.19
2022-12-23T15:06:36.565Z,101116.69
2022-12-23T15:09:07.530Z,101220.03
2022-12-23T15:11:37.837Z,101223.31
2022-12-23T15:14:11.632Z,101192.19
2022-12-23T15:16:45.237Z,101217.63
2022-12-23T15:19:19.270Z,101074.88
2022-12-23T15:21:54.488Z,101190.34
2022-12-23T15:24:28.676Z,101197.78
2022-12-23T15:27:25.154Z,101217.13
2022-12-23T15:29:51.524Z,101201.28
2022-12-23T15:32:23.775Z,101227.34
2022-12-23T15:34:55.937Z,101222.31
2022-12-23T15:37:28.971Z,101209.22
2022-12-23T15:40:09.432Z,101232.16
2022-12-23T15:42:51.123Z,101243.53
2022-12-23T15:45:35.917Z,101251.19
2022-12-23T15:48:08.737Z,101241.28
2022-12-23T15:50:41.842Z,101230.63
2022-12-23T15:53:12.001Z,101243.84
2022-12-23T15:55:41.656Z,101252.31
2022-12-23T15:58:18.033Z,101230.06
2022-12-23T16:00:54.313Z,101221.91
2022-12-23T16:03:30.925Z,101266.41
2022-12-23T16:06:08.549Z,101258.66
2022-12-23T16:08:36.923Z,101272.03
2022-12-23T16:11:13.367Z,101228.78
2022-12-23T16:13:47.255Z,101268.03
2022-12-23T16:16:33.120Z,101289.72
2022-12-23T16:19:03.078Z,101288.06
2022-12-23T16:21:33.665Z,101293.81
2022-12-23T16:24:04.375Z,101287.59
2022-12-23T16:26:33.232Z,101281.72
2022-12-23T16:29:02.531Z,101278.38
2022-12-23T16:31:34.246Z,101284.28
2022-12-23T16:34:08.468Z,101273.03
2022-12-23T16:36:37.881Z,101262.06
2022-12-23T16:39:17.579Z,101258.00
2022-12-23T16:41:46.379Z,101260.53
2022-12-23T16:44:16.002Z,101259.84
2022-12-23T16:46:47.785Z,101268.28
2022-12-23T16:49:19.928Z,101226.69
2022-12-23T16:51:49.451Z,101248.09
2022-12-23T16:54:20.053Z,101257.53
2022-12-23T16:56:48.426Z,101259.38
2022-12-23T16:59:17.278Z,101255.34
2022-12-23T17:01:47.684Z,101224.84
2022-12-23T17:04:19.194Z,101252.16
2022-12-23T17:06:48.799Z,101268.53
2022-12-23T17:09:17.411Z,101276.25
2022-12-23T17:11:48.209Z,101296.28
2022-12-23T17:14:20.806Z,101250.38
2022-12-23T17:16:52.437Z,101218.31
2022-12-23T17:19:28.407Z,101272.94
2022-12-23T17:22:03.685Z,101172.22
2022-12-23T17:24:34.517Z,101290.59
2022-12-23T17:27:03.503Z,101284.00
2022-12-23T17:29:31.881Z,101299.97
2022-12-23T17:32:00.838Z,101295.72
2022-12-23T17:34:31.254Z,101280.22
2022-12-23T17:37:01.308Z,101287.13
2022-12-23T17:39:29.655Z,101285.22
2022-12-23T17:41:58.941Z,101280.16
2022-12-23T17:44:27.224Z,101282.81
2022-12-23T17:46:55.545Z,101287.09
2022-12-23T17:49:23.858Z,101302.56
2022-12-23T17:51:53.607Z,101294.66
2022-12-23T17:54:24.173Z,101269.47
2022-12-23T17:56:53.141Z,101298.56
2022-12-23T17:59:21.872Z,101289.81
2022-12-23T18:01:51.414Z,101295.88
2022-12-23T18:04:24.937Z,101301.63
2022-12-23T18:06:56.204Z,101307.22
2022-12-23T18:09:26.665Z,101315.47
2022-12-23T18:11:57.451Z,101308.38
2022-12-23T18:14:28.814Z,101313.03
2022-12-23T18:16:58.148Z,101314.50
2022-12-23T18:19:26.712Z,101308.88
2022-12-23T18:21:56.734Z,101292.31
2022-12-23T18:24:25.186Z,101315.81
2022-12-23T18:26:53.429Z,101314.91
2022-12-23T18:29:22.385Z,101319.94
2022-12-23T18:31:52.436Z,101307.78
2022-12-23T18:34:24.368Z,101318.56
2022-12-23T18:36:52.972Z,101312.56
2022-12-23T18:39:22.809Z,101322.31
2022-12-23T18:41:52.227Z,101320.94
2022-12-23T18:44:23.217Z,101312.81
2022-12-23T18:46:51.750Z,101318.50
2022-12-23T18:49:23.892Z,101312.44
2022-12-23T18:51:52.198Z,101312.03
2022-12-23T18:54:20.962Z,101320.09
2022-12-23T18:56:51.307Z,101318.56
2022-12-23T18:59:29.645Z,101196.34
2022-12-23T19:01:59.476Z,101321.84
2022-12-23T19:04:28.570Z,101316.09
2022-12-23T19:06:58.430Z,101313.56
2022-12-23T19:09:27.994Z,101295.22
2022-12-23T19:11:58.776Z,101285.47
2022-12-23T19:14:27.489Z,101298.28
2022-12-23T19:16:56.199Z,101313.00
2022-12-23T19:19:24.874Z,101302.47
2022-12-23T19:21:53.608Z,101305.31
2022-12-23T19:24:22.292Z,101310.25
2022-12-23T19:26:50.668Z,101307.47
2022-12-23T19:29:20.433Z,101298.94
2022-12-23T19:31:48.776Z,101299.53
2022-12-23T19:34:17.122Z,101301.66
2022-12-23T19:36:45.613Z,101288.88
2022-12-23T19:39:16.965Z,101302.28
2022-12-23T19:41:45.929Z,101307.09
2022-12-23T19:44:14.624Z,101302.47
2022-12-23T19:46:44.424Z,101306.16
2022-12-23T19:49:19.783Z,101322.88
2022-12-23T19:51:49.589Z,101314.72
2022-12-23T19:54:21.352Z,101316.56
2022-12-23T19:56:52.384Z,101316.13
2022-12-23T19:59:22.891Z,101321.22
2022-12-23T20:01:53.227Z,101322.63
2022-12-23T20:04:24.389Z,101323.03
2022-12-23T20:06:53.541Z,101296.91
2022-12-23T20:09:25.363Z,101327.56
2022-12-23T20:11:54.992Z,101325.44
2022-12-23T20:14:29.035Z,101328.25
2022-12-23T20:17:04.333Z,101321.19
2022-12-23T20:19:34.299Z,101318.94
2022-12-23T20:22:03.506Z,101324.56
2022-12-23T20:24:33.343Z,101316.53
2022-12-23T20:27:05.121Z,101318.66
2022-12-23T20:29:36.779Z,101317.97
2022-12-23T20:32:07.118Z,101317.25
2022-12-23T20:34:39.528Z,101310.59
2022-12-23T20:37:08.743Z,101310.59
2022-12-23T20:39:37.627Z,101301.59
2022-12-23T20:42:32.851Z,101296.38
2022-12-23T20:45:07.573Z,101283.66
2022-12-23T20:48:38.763Z,101280.03
2022-12-23T20:50:48.818Z,101305.53
2022-12-23T20:53:21.733Z,101307.94
2022-12-23T20:55:52.396Z,101304.53
2022-12-23T20:58:38.744Z,101297.06
2022-12-23T21:01:11.393Z,101304.53
2022-12-23T21:03:44.450Z,101300.31
2022-12-23T21:06:13.964Z,101301.84
2022-12-23T21:08:44.891Z,101302.25
2022-12-23T21:11:14.285Z,101301.72
2022-12-23T21:13:44.001Z,101311.56
2022-12-23T21:16:14.304Z,101303.69
2022-12-23T21:18:46.746Z,101312.56
2022-12-23T21:21:32.143Z,101309.03
2022-12-23T21:24:05.209Z,101291.38
2022-12-23T21:26:35.546Z,101326.34
2022-12-23T21:29:07.580Z,101327.91
2022-12-23T21:31:38.912Z,101325.22
2022-12-23T21:34:10.144Z,101327.34
2022-12-23T21:36:40.065Z,101323.97
2022-12-23T21:39:09.680Z,101321.44
2022-12-23T21:41:41.730Z,101314.78
2022-12-23T21:44:11.398Z,101313.25
2022-12-23T21:46:40.826Z,101312.78
2022-12-23T21:49:12.521Z,101306.16
2022-12-23T21:51:41.688Z,101295.72
2022-12-23T21:54:11.111Z,101303.03
2022-12-23T21:56:44.640Z,101253.13
2022-12-23T21:59:17.908Z,101277.91
2022-12-23T22:01:47.802Z,101325.75
2022-12-23T22:04:17.613Z,101340.16
2022-12-23T22:06:46.438Z,101333.84
2022-12-23T22:09:19.071Z,101332.16
2022-12-23T22:11:48.294Z,101322.41
2022-12-23T22:14:19.309Z,101289.28
2022-12-23T22:16:48.035Z,101323.69
2022-12-23T22:19:18.098Z,101313.13
2022-12-23T22:21:46.469Z,101310.88
2022-12-23T22:24:14.749Z,101320.16
2022-12-23T22:26:43.067Z,101315.06
2022-12-23T22:29:12.718Z,101168.47
2022-12-23T22:31:44.795Z,101314.34
2022-12-23T22:34:15.565Z,101319.72
2022-12-23T22:36:45.740Z,101322.13
2022-12-23T22:39:20.682Z,101298.25
2022-12-23T22:41:50.798Z,101335.38
2022-12-23T22:44:19.527Z,101333.41
2022-12-23T22:46:48.296Z,101321.72
2022-12-23T22:49:17.826Z,101314.97
2022-12-23T22:51:48.142Z,101319.75
2022-12-23T22:54:16.931Z,101305.63
2022-12-23T22:56:46.189Z,101311.84
2022-12-23T22:59:21.963Z,101308.19
2022-12-23T23:01:52.497Z,101307.47
2022-12-23T23:04:21.681Z,101304.53
2022-12-23T23:06:52.189Z,101304.25
2022-12-23T23:09:23.618Z,101295.22
2022-12-23T23:11:52.763Z,101317.66
2022-12-23T23:14:21.650Z,101314.97
2022-12-23T23:16:50.701Z,101310.75
2022-12-23T23:19:23.184Z,101323.16
2022-12-23T23:21:53.753Z,101318.78
2022-12-23T23:24:27.742Z,101329.06
2022-12-23T23:26:59.929Z,101327.66
2022-12-23T23:29:30.053Z,101335.94
2022-12-23T23:31:58.697Z,101327.75
2022-12-23T23:34:27.494Z,101335.81
2022-12-23T23:36:58.066Z,101350.47
2022-12-23T23:39:27.143Z,101344.56
2022-12-23T23:41:56.088Z,101349.81
2022-12-23T23:44:25.057Z,101344.63
2022-12-23T23:46:53.811Z,101348.00
2022-12-23T23:49:24.098Z,101344.34
2022-12-23T23:51:52.892Z,101352.53
2022-12-23T23:54:23.236Z,101348.31
2022-12-23T23:56:52.339Z,101342.53
2022-12-23T23:59:22.214Z,101342.09
